^^
Datos históricos de la estación: Murcia-Puente Tocinos
Diario Informe para Agosto 1, 2019 Unidades:  Métrico    Ingés   Ambas
Diario Semanal Mensual Anual
  Máxima: Mínima: Promedio:
Temperatura: 34.2 °C 22.2 °C 27.8 °C
Punto de rocio: 19.9 °C 14.7 °C 17.9 °C
Humedad: 78% 33.4% 57%
Velocidad viento: 18.4km/h 0km/h 6.3km/h
Racha viento: 30.6km/h - -
Viento- - SE
Presión: 1013.5 hPa 1009.8 hPa -
Precipitación: 0.0 mm    
 
 
Tabla de datos para Agosto 1, 2019
Hora Temperatura Punto de rocio Presión Viento Velocidad viento Racha viento Humedad Intensidad lluvia(por hora) Nubes
00:04 26.3 °C 18.5 °C 1013.3 hPa NE 2.9 km/h 4.8 km/h 62.4% 0.0 mm
00:09 26.2 °C 18.6 °C 1013.3 hPa NE 2.7 km/h 4.8 km/h 63% 0.0 mm
00:14 26.2 °C 18.6 °C 1013.3 hPa NE 2.2 km/h 4.8 km/h 63% 0.0 mm
00:19 26.1 °C 18.5 °C 1013.3 hPa NE 2.2 km/h 4.7 km/h 63% 0.0 mm
00:24 26.1 °C 18.5 °C 1013.3 hPa NE 2.2 km/h 4.8 km/h 63% 0.0 mm
00:29 26 °C 18.5 °C 1013.3 hPa NE 1.6 km/h 3.9 km/h 63.3% 0.0 mm
00:34 25.9 °C 18.6 °C 1013.4 hPa Calm   6.9 km/h 64% 0.0 mm
00:39 25.9 °C 18.6 °C 1013.4 hPa ESE 1.2 km/h 8 km/h 64% 0.0 mm
00:44 25.8 °C 18.3 °C 1013.4 hPa ESE 3.9 km/h 8 km/h 63.1% 0.0 mm
00:49 25.8 °C 18.4 °C 1013.4 hPa ESE 3.9 km/h 8 km/h 63.7% 0.0 mm
00:54 25.7 °C 18.4 °C 1013.4 hPa ESE 3.9 km/h 7.4 km/h 64% 0.0 mm
00:59 25.7 °C 18.6 °C 1013.4 hPa ESE 3.3 km/h 8 km/h 64.7% 0.0 mm
01:04 25.6 °C 18.6 °C 1013.5 hPa ESE 2.2 km/h 7.4 km/h 65% 0.0 mm
01:09 25.6 °C 18.3 °C 1013.5 hPa ESE 2.5 km/h 8 km/h 64.1% 0.0 mm
01:14 25.5 °C 18 °C 1013.5 hPa ESE 3.2 km/h 8 km/h 63% 0.0 mm
01:19 25.4 °C 17.8 °C 1013.5 hPa ESE 3.2 km/h 6.4 km/h 62.9% 0.0 mm
01:24 25.4 °C 17.8 °C 1013.4 hPa ESE 3.2 km/h 6.4 km/h 63% 0.0 mm
01:29 25.3 °C 17.8 °C 1013.4 hPa ESE 3.1 km/h 6.4 km/h 63% 0.0 mm
01:34 25.2 °C 17.7 °C 1013.5 hPa Este 2.9 km/h 8 km/h 63% 0.0 mm
01:39 25.1 °C 17.6 °C 1013.5 hPa ESE 3 km/h 8 km/h 63.2% 0.0 mm
01:44 24.9 °C 17.6 °C 1013.5 hPa ESE 3.2 km/h 5.6 km/h 64% 0.0 mm
01:49 24.9 °C 17.6 °C 1013.5 hPa ESE 3.1 km/h 5.6 km/h 64% 0.0 mm
01:54 24.8 °C 17.6 °C 1013.3 hPa ESE 2.9 km/h 5.6 km/h 64.3% 0.0 mm
01:59 24.8 °C 17.8 °C 1013.3 hPa ESE 2.7 km/h 4.7 km/h 65% 0.0 mm
02:04 24.7 °C 17.7 °C 1013.3 hPa ESE 2.2 km/h 4.8 km/h 65% 0.0 mm
02:09 24.7 °C 17.8 °C 1013.3 hPa ESE 1.5 km/h   65.6% 0.0 mm
02:14 24.6 °C 17.9 °C 1013.3 hPa Calm     66.2% 0.0 mm
02:19 24.6 °C 18.1 °C 1013.3 hPa Calm     67% 0.0 mm
02:24 24.6 °C 18 °C 1013.1 hPa Calm     67% 0.0 mm
02:29 24.5 °C 18.2 °C 1013.1 hPa Calm   5.8 km/h 68% 0.0 mm
02:34 24.5 °C 18.2 °C 1013.1 hPa Calm   6.4 km/h 68% 0.0 mm
02:39 24.5 °C 18.4 °C 1013.0 hPa Sur 0.7 km/h 7.6 km/h 68.7% 0.0 mm
02:44 24.7 °C 19 °C 1013.0 hPa SSO 2.2 km/h 8 km/h 70.8% 0.0 mm
02:49 24.7 °C 19 °C 1013.0 hPa SSE 3 km/h 8 km/h 70.7% 0.0 mm
02:54 24.7 °C 18.8 °C 1012.8 hPa SSE 4.7 km/h 8 km/h 70% 0.0 mm
02:59 24.6 °C 18.8 °C 1012.8 hPa Sur 4.4 km/h 11.1 km/h 70.3% 0.0 mm
03:04 24.6 °C 19.2 °C 1012.8 hPa SO 3.9 km/h 11.3 km/h 72% 0.0 mm
03:09 24.6 °C 19.2 °C 1012.7 hPa SO 4.2 km/h 11.3 km/h 72% 0.0 mm
03:14 24.5 °C 19.3 °C 1012.7 hPa OSO 5 km/h 8 km/h 73% 0.0 mm
03:19 24.5 °C 19.5 °C 1012.7 hPa SO 4.5 km/h 7.4 km/h 73.6% 0.0 mm
03:24 24.5 °C 19.7 °C 1012.6 hPa SSO 3.2 km/h 8.4 km/h 74.8% 0.0 mm
03:29 24.5 °C 19.8 °C 1012.6 hPa SSO 3.4 km/h 8 km/h 75% 0.0 mm
03:34 24.5 °C 19.9 °C 1012.6 hPa SO 3.9 km/h 5.8 km/h 75.4% 0.0 mm
03:39 24.4 °C 19.9 °C 1012.6 hPa SO 3.7 km/h 7.6 km/h 76% 0.0 mm
03:44 24.4 °C 19.7 °C 1012.6 hPa OSO 3.2 km/h 8 km/h 75.5% 0.0 mm
03:49 24.2 °C 19.5 °C 1012.6 hPa OSO 3.1 km/h 4.8 km/h 75% 0.0 mm
03:54 24.2 °C 19.4 °C 1012.6 hPa SO 2.9 km/h 5.8 km/h 75% 0.0 mm
03:59 24 °C 19.3 °C 1012.6 hPa ESE 3 km/h 7.6 km/h 75.2% 0.0 mm
04:04 23.7 °C 19.1 °C 1012.6 hPa SE 3.2 km/h 9.5 km/h 75.4% 0.0 mm
04:09 23.4 °C 19 °C 1012.5 hPa SSE 4 km/h 9.7 km/h 76% 0.0 mm
04:14 23.3 °C 18.8 °C 1012.5 hPa SSE 5.8 km/h 9.7 km/h 76% 0.0 mm
04:19 23.3 °C 18.8 °C 1012.5 hPa SSE 5.5 km/h 8 km/h 76% 0.0 mm
04:24 23.3 °C 18.8 °C 1012.4 hPa SSE 4.7 km/h 8 km/h 76% 0.0 mm
04:29 23.3 °C 18.8 °C 1012.4 hPa SSE 4.1 km/h 6.4 km/h 76% 0.0 mm
04:34 23.3 °C 18.8 °C 1012.4 hPa SSE 2.9 km/h 4.8 km/h 76% 0.0 mm
04:39 23.3 °C 18.9 °C 1012.3 hPa SSE 2.1 km/h 5.6 km/h 76.3% 0.0 mm
04:44 23.3 °C 19 °C 1012.3 hPa Calm   7.4 km/h 77% 0.0 mm
04:49 23.2 °C 19 °C 1012.3 hPa Oeste 0.7 km/h 8 km/h 77.1% 0.0 mm
04:54 23.1 °C 19.1 °C 1012.3 hPa Oeste 2.2 km/h 1.6 km/h 78% 0.0 mm
04:59 23.1 °C 19.1 °C 1012.3 hPa Oeste 1.5 km/h 2.3 km/h 78% 0.0 mm
05:04 23.1 °C 19.1 °C 1012.4 hPa Calm   3.9 km/h 78% 0.0 mm
05:09 23.1 °C 18.8 °C 1012.4 hPa Calm   3.7 km/h 77% 0.0 mm
05:14 23 °C 18.7 °C 1012.4 hPa Calm   3.9 km/h 77% 0.0 mm
05:19 22.9 °C 18.7 °C 1012.4 hPa Calm   3.9 km/h 77% 0.0 mm
05:24 22.9 °C 18.7 °C 1012.3 hPa Calm   6.4 km/h 77% 0.0 mm
05:29 23 °C 18.7 °C 1012.3 hPa SE 0.7 km/h 8 km/h 77% 0.0 mm
05:34 23 °C 18.6 °C 1012.3 hPa SE 2.2 km/h 8 km/h 76.1% 0.0 mm
05:39 23.1 °C 18.6 °C 1012.3 hPa SE 2.4 km/h 6.9 km/h 75.8% 0.0 mm
05:44 23 °C 18.3 °C 1012.3 hPa SE 2.9 km/h 8 km/h 75% 0.0 mm
05:49 22.9 °C 18.2 °C 1012.3 hPa SE 3.4 km/h 8 km/h 75% 0.0 mm
05:54 22.8 °C 18.1 °C 1012.2 hPa SE 4.7 km/h 8 km/h 75% 0.0 mm
05:59 22.8 °C 18.1 °C 1012.2 hPa SE 4.2 km/h 8 km/h 75% 0.0 mm
06:04 22.7 °C 18.1 °C 1012.3 hPa SE 3.2 km/h 4.8 km/h 75% 0.0 mm
06:09 22.7 °C 18.1 °C 1012.3 hPa SE 2.3 km/h 1.6 km/h 75% 0.0 mm
06:14 22.7 °C 18 °C 1012.3 hPa Calm     75% 0.0 mm
06:19 22.6 °C 17.9 °C 1012.4 hPa Calm   4.7 km/h 75% 0.0 mm
06:24 22.6 °C 18.1 °C 1012.4 hPa Calm   4.8 km/h 75.6% 0.0 mm
06:29 22.6 °C 17.9 °C 1012.4 hPa Este 0.7 km/h 4.7 km/h 75.2% 0.0 mm
06:34 22.4 °C 17.9 °C 1012.5 hPa Este 2.2 km/h 4.8 km/h 75.7% 0.0 mm
06:39 22.4 °C 17.8 °C 1012.5 hPa Este 1.6 km/h 4.7 km/h 75.3% 0.0 mm
06:44 22.3 °C 17.8 °C 1012.5 hPa Calm   4.8 km/h 75.5% 0.0 mm
06:49 22.3 °C 17.9 °C 1012.5 hPa Calm     76% 0.0 mm
06:54 22.2 °C 17.8 °C 1012.4 hPa Calm     76% 0.0 mm
06:59 22.2 °C 17.9 °C 1012.4 hPa Calm     76.3% 0.0 mm
07:04 22.2 °C 18 °C 1012.6 hPa Calm     77% 0.0 mm
07:09 22.3 °C 18.1 °C 1012.6 hPa Calm   3.9 km/h 77% 0.0 mm
07:14 22.3 °C 18.1 °C 1012.6 hPa Calm   6.4 km/h 77% 0.0 mm
07:19 22.3 °C 18.3 °C 1012.7 hPa Sur 0.9 km/h 8.7 km/h 77.9% 0.0 mm
07:24 22.4 °C 18.4 °C 1012.7 hPa Sur 3.2 km/h 9.7 km/h 78% 0.0 mm
07:29 22.4 °C 18.2 °C 1012.7 hPa Sur 3.4 km/h 8 km/h 77.2% 0.0 mm
07:34 22.4 °C 18.2 °C 1012.9 hPa Sur 3.9 km/h 8 km/h 77% 0.0 mm
07:39 22.3 °C 18.1 °C 1012.9 hPa Sur 2.7 km/h 4.7 km/h 77% 0.0 mm
07:44 22.3 °C 18.1 °C 1012.9 hPa Calm   4.8 km/h 77.1% 0.0 mm
07:49 22.3 °C 18.2 °C 1012.9 hPa Sur 0.7 km/h 5 km/h 77.9% 0.0 mm
07:54 22.3 °C 18.2 °C 1012.9 hPa Sur 2.2 km/h 6.4 km/h 78% 0.0 mm
07:59 22.3 °C 18.1 °C 1012.9 hPa SSO 2.5 km/h 8.4 km/h 77.2% 0.0 mm
08:04 22.3 °C 18.1 °C 1012.9 hPa SSO 2.9 km/h 10.3 km/h 77% 0.0 mm
08:09 22.3 °C 18.1 °C 1012.8 hPa SSO 4.2 km/h 11.3 km/h 77% 0.0 mm
08:14 22.3 °C 17.9 °C 1012.8 hPa SSO 6.9 km/h 10 km/h 76.2% 0.0 mm
08:19 22.5 °C 17.8 °C 1013.0 hPa SSO 7.1 km/h 11.1 km/h 75.1% 0.0 mm
08:24 22.6 °C 17.8 °C 1013.0 hPa SSO 7.6 km/h 11.3 km/h 74.2% 0.0 mm
08:29 22.7 °C 18.1 °C 1013.0 hPa SSO 7.4 km/h 11.3 km/h 75% 0.0 mm
08:34 22.8 °C 18.2 °C 1013.0 hPa SSO 6.9 km/h 11.9 km/h 75.4% 0.0 mm
08:39 22.8 °C 18.1 °C 1013.0 hPa SSO 7.4 km/h 13 km/h 75% 0.0 mm
08:44 22.9 °C 18.2 °C 1013.0 hPa SO 8.4 km/h 12.9 km/h 75% 0.0 mm
08:49 22.9 °C 18 °C 1013.0 hPa SO 7.9 km/h 13.7 km/h 73.9% 0.0 mm
08:54 23 °C 17.9 °C 1013.0 hPa SO 6.9 km/h 14.5 km/h 73% 0.0 mm
08:59 23.1 °C 18 °C 1013.0 hPa SO 7.2 km/h 13 km/h 73% 0.0 mm
09:04 23.2 °C 18.1 °C 1013.0 hPa SSO 7.6 km/h 12.9 km/h 73% 0.0 mm
09:09 23.2 °C 18.1 °C 1013.0 hPa SSO 7.2 km/h 11.3 km/h 72.9% 0.0 mm
09:14 23.3 °C 18 °C 1013.0 hPa SO 6.5 km/h 11.3 km/h 72% 0.0 mm
09:19 23.4 °C 18 °C 1013.1 hPa SSO 6.3 km/h 10 km/h 71.5% 0.0 mm
09:24 23.5 °C 18 °C 1013.1 hPa SSO 5.8 km/h 9.7 km/h 71% 0.0 mm
09:29 23.7 °C 17.9 °C 1013.1 hPa SO 5.5 km/h 8 km/h 70.2% 0.0 mm
09:34 23.7 °C 17.9 °C 1013.2 hPa SO 5 km/h 9.5 km/h 70% 0.0 mm
09:39 23.8 °C 18 °C 1013.2 hPa SO 5 km/h 9.7 km/h 69.8% 0.0 mm
09:44 23.9 °C 17.9 °C 1013.2 hPa SO 5 km/h 9.7 km/h 69% 0.0 mm
09:49 24.2 °C 18.1 °C 1013.2 hPa SSO 5 km/h 10.3 km/h 69% 0.0 mm
09:54 24.3 °C 18.3 °C 1013.2 hPa Sur 5 km/h 11.3 km/h 69% 0.0 mm
09:59 24.4 °C 18.4 °C 1013.2 hPa SSE 5.6 km/h 11.9 km/h 69% 0.0 mm
10:04 24.6 °C 18.6 °C 1013.2 hPa SSO 6.9 km/h 11.3 km/h 69.3% 0.0 mm
10:09 24.8 °C 18.9 °C 1013.2 hPa SSE 6.6 km/h 9.7 km/h 69.9% 0.0 mm
10:14 24.9 °C 19.3 °C 1013.2 hPa Sur 5.8 km/h 13 km/h 70.9% 0.0 mm
10:19 25 °C 19.3 °C 1013.2 hPa SSO 6 km/h 12.9 km/h 70.4% 0.0 mm
10:24 25.2 °C 19.4 °C 1013.1 hPa ESE 6.5 km/h 9.7 km/h 70.5% 0.0 mm
10:29 25.5 °C 19.3 °C 1013.1 hPa SSO 5.5 km/h 9.5 km/h 68.6% 0.0 mm
10:34 25.6 °C 19 °C 1013.1 hPa SSO 3.2 km/h 9.7 km/h 66.8% 0.0 mm
10:39 25.8 °C 19 °C 1013.1 hPa Oeste 3.4 km/h 8 km/h 66.3% 0.0 mm
10:44 26 °C 18.9 °C 1013.1 hPa OSO 3.9 km/h 7.4 km/h 65.2% 0.0 mm
10:49 26.2 °C 19.2 °C 1013.1 hPa SSO 3.6 km/h 8 km/h 65.2% 0.0 mm
10:54 26.7 °C 19 °C 1013.1 hPa ESE 2.9 km/h 8 km/h 63% 0.0 mm
10:59 26.9 °C 18.9 °C 1013.1 hPa Este 3.2 km/h 8 km/h 61.6% 0.0 mm
11:04 27.2 °C 19 °C 1013.1 hPa NE 3.9 km/h 6.4 km/h 61% 0.0 mm
11:09 27.5 °C 19 °C 1013.1 hPa NNO 3.5 km/h 9.3 km/h 59.9% 0.0 mm
11:14 27.7 °C 18.9 °C 1013.1 hPa NO 2.9 km/h 9.7 km/h 59% 0.0 mm
11:19 27.8 °C 18.9 °C 1013.1 hPa ONO 2.9 km/h 8 km/h 58.4% 0.0 mm
11:24 28 °C 18.8 °C 1013.0 hPa NO 2.9 km/h 10 km/h 57.4% 0.0 mm
11:29 28.1 °C 18.8 °C 1013.0 hPa NNE 3.4 km/h 9.7 km/h 57.4% 0.0 mm
11:34 28.2 °C 18.9 °C 1013.0 hPa NE 4.7 km/h 8.4 km/h 56.8% 0.0 mm
11:39 28.3 °C 18.8 °C 1012.9 hPa Oeste 4.7 km/h 8 km/h 56.1% 0.0 mm
11:44 28.4 °C 19.1 °C 1012.9 hPa Oeste 4.7 km/h 8 km/h 57.1% 0.0 mm
11:49 28.8 °C 19.3 °C 1013.0 hPa ESE 4.1 km/h 9.5 km/h 56.6% 0.0 mm
11:54 29 °C 19.3 °C 1013.0 hPa SE 2.9 km/h 9.7 km/h 56% 0.0 mm
11:59 29.1 °C 19.4 °C 1013.0 hPa SE 3.9 km/h 9.7 km/h 55.8% 0.0 mm
12:04 29.3 °C 19.4 °C 1013.0 hPa Este 5.8 km/h 9.3 km/h 55.5% 0.0 mm
12:09 29.5 °C 19.5 °C 1012.9 hPa NNE 5 km/h 9.7 km/h 55% 0.0 mm
12:14 29.8 °C 19.6 °C 1012.9 hPa NE 3.2 km/h 9.7 km/h 54.3% 0.0 mm
12:19 29.9 °C 19.6 °C 1012.9 hPa North 3.7 km/h 11.9 km/h 54% 0.0 mm
12:24 29.9 °C 19.6 °C 1012.8 hPa NNE 5 km/h 11.3 km/h 54% 0.0 mm
12:29 29.9 °C 19.8 °C 1012.8 hPa NNE 5.4 km/h 14.8 km/h 54.7% 0.0 mm
12:34 29.9 °C 19.6 °C 1012.8 hPa Este 6.5 km/h 14.8 km/h 54.1% 0.0 mm
12:39 30 °C 19.6 °C 1012.7 hPa ESE 6.8 km/h 14.5 km/h 53.9% 0.0 mm
12:44 30.2 °C 19.5 °C 1012.7 hPa ENE 7.6 km/h 13 km/h 53% 0.0 mm
12:49 30.3 °C 19.6 °C 1012.7 hPa NNE 7.2 km/h 12.9 km/h 53% 0.0 mm
12:54 30.3 °C 19.6 °C 1012.5 hPa NE 6.5 km/h 13.7 km/h 52.9% 0.0 mm
12:59 30.4 °C 19.6 °C 1012.5 hPa NE 6.8 km/h 14.5 km/h 52.6% 0.0 mm
13:04 30.6 °C 19.3 °C 1012.5 hPa ENE 7.6 km/h 14.5 km/h 51.1% 0.0 mm
13:09 30.7 °C 19.4 °C 1012.3 hPa NE 7.4 km/h 14.8 km/h 50.9% 0.0 mm
13:14 30.8 °C 19.5 °C 1012.3 hPa NE 6.9 km/h 14.5 km/h 50.7% 0.0 mm
13:19 31.1 °C 19.3 °C 1012.3 hPa NE 7.4 km/h 18.5 km/h 49.7% 0.0 mm
13:24 31.2 °C 19.2 °C 1012.1 hPa ENE 8.4 km/h 19.3 km/h 49% 0.0 mm
13:29 31.5 °C 19.1 °C 1012.1 hPa Este 7.8 km/h 13 km/h 47.6% 0.0 mm
13:34 31.9 °C 19 °C 1012.1 hPa ENE 6.5 km/h 18.5 km/h 46.6% 0.0 mm
13:39 32.1 °C 19 °C 1011.9 hPa ENE 6.6 km/h 19.3 km/h 46% 0.0 mm
13:44 32.3 °C 19.1 °C 1011.9 hPa Este 6.9 km/h 14.5 km/h 45.7% 0.0 mm
13:49 32.3 °C 19.3 °C 1011.9 hPa ENE 7.1 km/h 15.6 km/h 46.1% 0.0 mm
13:54 32.3 °C 19.2 °C 1011.8 hPa Este 7.6 km/h 16.7 km/h 45.8% 0.0 mm
13:59 32.5 °C 19.1 °C 1011.8 hPa Este 7.8 km/h 16.1 km/h 45% 0.0 mm
14:04 32.7 °C 19.1 °C 1011.8 hPa ESE 8.4 km/h 22.5 km/h 44.9% 0.0 mm
14:09 32.6 °C 18.9 °C 1011.7 hPa ESE 9.6 km/h 22.5 km/h 44.5% 0.0 mm
14:14 32.7 °C 19 °C 1011.7 hPa ESE 12.2 km/h 22 km/h 44.4% 0.0 mm
14:19 32.9 °C 18.7 °C 1011.7 hPa ESE 11.9 km/h 22.5 km/h 43.1% 0.0 mm
14:24 33.1 °C 19 °C 1011.4 hPa ESE 11.1 km/h 20.9 km/h 43.4% 0.0 mm
14:29 33.1 °C 19 °C 1011.4 hPa ESE 11.5 km/h 28.2 km/h 43.4% 0.0 mm
14:34 32.9 °C 19.1 °C 1011.4 hPa ESE 12.2 km/h 27.4 km/h 44.2% 0.0 mm
14:39 32.8 °C 19.5 °C 1011.4 hPa ESE 13.4 km/h 27.8 km/h 45.5% 0.0 mm
14:44 32.7 °C 19.7 °C 1011.4 hPa ESE 16.1 km/h 27.4 km/h 46.5% 0.0 mm
14:49 32.8 °C 19.7 °C 1011.4 hPa ESE 15.7 km/h 27.8 km/h 46.1% 0.0 mm
14:54 32.8 °C 19.9 °C 1011.2 hPa ESE 14.8 km/h 27.4 km/h 46.6% 0.0 mm
14:59 32.8 °C 19.5 °C 1011.2 hPa ESE 15.7 km/h 25.9 km/h 45.7% 0.0 mm
15:04 32.9 °C 19 °C 1011.2 hPa ESE 17.2 km/h 28.2 km/h 43.7% 0.0 mm
15:09 33.1 °C 19 °C 1011.1 hPa ESE 16.8 km/h 27.4 km/h 43.4% 0.0 mm
15:14 33.2 °C 19.1 °C 1011.1 hPa ESE 16.1 km/h 28.2 km/h 43.3% 0.0 mm
15:19 33.3 °C 18.8 °C 1011.1 hPa ESE 16.1 km/h 27.4 km/h 42.4% 0.0 mm
15:24 33.3 °C 18.8 °C 1010.9 hPa ESE 16.1 km/h 25.7 km/h 42.4% 0.0 mm
15:29 33.3 °C 19 °C 1010.9 hPa ESE 15.4 km/h 22.5 km/h 42.9% 0.0 mm
15:34 33.6 °C 18.9 °C 1010.9 hPa ESE 13.7 km/h 24.5 km/h 41.9% 0.0 mm
15:39 33.6 °C 18.7 °C 1010.7 hPa SE 13.7 km/h 25.9 km/h 41.3% 0.0 mm
15:44 33.7 °C 18.6 °C 1010.7 hPa ESE 13.7 km/h 25.7 km/h 40.8% 0.0 mm
15:49 33.8 °C 18 °C 1010.7 hPa SE 13.7 km/h 24.1 km/h 39.1% 0.0 mm
15:54 33.7 °C 17.6 °C 1010.6 hPa SE 13.7 km/h 24.5 km/h 38.3% 0.0 mm
15:59 33.7 °C 17.7 °C 1010.6 hPa SE 13.8 km/h 24.1 km/h 38.7% 0.0 mm
16:04 33.9 °C 17.9 °C 1010.6 hPa ESE 14 km/h 24.1 km/h 38.7% 0.0 mm
16:09 33.8 °C 17.6 °C 1010.3 hPa ESE 14.2 km/h 24.5 km/h 38.1% 0.0 mm
16:14 34 °C 17.2 °C 1010.3 hPa SE 14.8 km/h 24.1 km/h 36.8% 0.0 mm
16:19 34.2 °C 16.7 °C 1010.4 hPa SSE 14.3 km/h 24.1 km/h 35.4% 0.0 mm
16:24 34.1 °C 16.2 °C 1010.4 hPa SE 13 km/h 24.1 km/h 34.6% 0.0 mm
16:29 33.9 °C 16.4 °C 1010.4 hPa SE 13.3 km/h 24.1 km/h 35.2% 0.0 mm
16:34 33.8 °C 16.5 °C 1010.4 hPa SE 14 km/h 29.8 km/h 35.5% 0.0 mm
16:39 33.7 °C 16.7 °C 1010.3 hPa SE 15.3 km/h 30.6 km/h 36.2% 0.0 mm
16:44 33.9 °C 16.8 °C 1010.3 hPa SE 18.4 km/h 25.9 km/h 36.2% 0.0 mm
16:49 34.1 °C 16.8 °C 1010.3 hPa SSE 17 km/h 25.9 km/h 35.8% 0.0 mm
16:54 34.1 °C 16.9 °C 1010.2 hPa SSE 13.7 km/h 29.8 km/h 36% 0.0 mm
16:59 34 °C 16.9 °C 1010.2 hPa SE 14.5 km/h 30.6 km/h 36.2% 0.0 mm
17:04 33.8 °C 17.1 °C 1010.2 hPa SE 16.1 km/h 27.4 km/h 37% 0.0 mm
17:09 33.8 °C 17 °C 1010.0 hPa SE 15.4 km/h 22.5 km/h 36.7% 0.0 mm
17:14 34 °C 16.8 °C 1010.0 hPa SE 13.7 km/h 28.2 km/h 36% 0.0 mm
17:19 34 °C 16.6 °C 1010.0 hPa SE 13.7 km/h 27.4 km/h 35.5% 0.0 mm
17:24 33.8 °C 16.7 °C 1009.8 hPa SE 13.7 km/h 24.1 km/h 36% 0.0 mm
17:29 33.8 °C 16.6 °C 1009.8 hPa SE 13.8 km/h 24.1 km/h 35.9% 0.0 mm
17:34 33.8 °C 16.2 °C 1009.8 hPa SE 14 km/h 24.1 km/h 35.1% 0.0 mm
17:39 33.8 °C 15.9 °C 1009.8 hPa SE 13.9 km/h 21.7 km/h 34.3% 0.0 mm
17:44 33.8 °C 15.7 °C 1009.8 hPa SE 13.7 km/h 25.1 km/h 34% 0.0 mm
17:49 33.7 °C 15.7 °C 1009.8 hPa SE 14 km/h 25.9 km/h 34% 0.0 mm
17:54 33.7 °C 15.4 °C 1009.8 hPa SSE 14.8 km/h 24.1 km/h 33.4% 0.0 mm
17:59 33.3 °C 16.1 °C 1009.8 hPa SSE 15.2 km/h 29.6 km/h 35.6% 0.0 mm
18:04 33.3 °C 16.5 °C 1010.0 hPa Sur 16.1 km/h 29 km/h 36.7% 0.0 mm
18:09 33.3 °C 16.7 °C 1010.0 hPa SSE 15.4 km/h 24.1 km/h 37% 0.0 mm
18:14 33.3 °C 16.7 °C 1010.0 hPa SSE 13.7 km/h 22.5 km/h 37% 0.0 mm
18:19 33.3 °C 16.8 °C 1010.0 hPa SE 13.5 km/h 22.5 km/h 37.5% 0.0 mm
18:24 33.2 °C 16.9 °C 1010.0 hPa SE 13 km/h 22.2 km/h 37.8% 0.0 mm
18:29 33.2 °C 16.5 °C 1010.0 hPa SE 12.7 km/h 23.3 km/h 37% 0.0 mm
18:34 33 °C 16.3 °C 1010.1 hPa SE 11.9 km/h 24.1 km/h 36.9% 0.0 mm
18:39 32.8 °C 16.1 °C 1010.1 hPa SE 12 km/h 24.1 km/h 36.7% 0.0 mm
18:44 32.6 °C 16.2 °C 1010.1 hPa SE 12.2 km/h 23.3 km/h 37.5% 0.0 mm
18:49 32.3 °C 16.2 °C 1010.2 hPa SE 12.7 km/h 24.1 km/h 38.1% 0.0 mm
18:54 32.2 °C 16.4 °C 1010.2 hPa SE 13.7 km/h 22.5 km/h 38.8% 0.0 mm
18:59 32.1 °C 16.2 °C 1010.2 hPa SE 12.5 km/h 20.4 km/h 38.6% 0.0 mm
19:04 32 °C 16.3 °C 1010.3 hPa SE 10.3 km/h 20.9 km/h 38.9% 0.0 mm
19:09 31.9 °C 16.2 °C 1010.3 hPa SE 10.6 km/h 19.3 km/h 38.9% 0.0 mm
19:14 32 °C 16.1 °C 1010.3 hPa SE 11.1 km/h 16.4 km/h 38.4% 0.0 mm
19:19 31.9 °C 15.7 °C 1010.3 hPa ESE 11.1 km/h 19 km/h 37.6% 0.0 mm
19:24 31.9 °C 15.7 °C 1010.2 hPa SE 11.1 km/h 19.3 km/h 37.7% 0.0 mm
19:29 32.1 °C 15.6 °C 1010.2 hPa ESE 10.2 km/h 17.7 km/h 37% 0.0 mm
19:34 32.2 °C 15.4 °C 1010.2 hPa SE 8.4 km/h 15.6 km/h 36.3% 0.0 mm
19:39 32.2 °C 14.9 °C 1010.1 hPa SE 8.5 km/h 16.7 km/h 35.3% 0.0 mm
19:44 32.2 °C 14.9 °C 1010.1 hPa SE 8.7 km/h 16.1 km/h 35.3% 0.0 mm
19:49 32 °C 14.7 °C 1010.2 hPa SE 9.2 km/h 17.2 km/h 35.2% 0.0 mm
19:54 31.8 °C 14.8 °C 1010.2 hPa SE 10.3 km/h 18.5 km/h 35.6% 0.0 mm
19:59 31.7 °C 14.8 °C 1010.2 hPa SE 9.8 km/h 19.3 km/h 36% 0.0 mm
20:04 31.7 °C 14.8 °C 1010.3 hPa SE 8.7 km/h 13.7 km/h 36% 0.0 mm
20:09 31.6 °C 14.9 °C 1010.3 hPa SE 8.4 km/h 14.5 km/h 36.6% 0.0 mm
20:14 31.4 °C 15 °C 1010.3 hPa SE 7.6 km/h 11.9 km/h 37% 0.0 mm
20:19 31.3 °C 14.9 °C 1010.5 hPa SE 7.6 km/h 11.3 km/h 37.1% 0.0 mm
20:24 31.2 °C 15.1 °C 1010.5 hPa ESE 7.6 km/h 11.3 km/h 37.6% 0.0 mm
20:29 31.2 °C 15.2 °C 1010.5 hPa ESE 6.5 km/h 8 km/h 38% 0.0 mm
20:34 31 °C 15.1 °C 1010.8 hPa ESE 3.9 km/h 8 km/h 38% 0.0 mm
20:39 30.9 °C 14.9 °C 1010.8 hPa ESE 3.9 km/h 10 km/h 38% 0.0 mm
20:44 30.8 °C 15.1 °C 1010.8 hPa SE 3.9 km/h 10 km/h 38.6% 0.0 mm
20:49 30.7 °C 15.2 °C 1010.9 hPa SE 4.5 km/h 9.7 km/h 39% 0.0 mm
20:54 30.6 °C 15.1 °C 1010.9 hPa ESE 5.8 km/h 8 km/h 39.1% 0.0 mm
20:59 30.5 °C 15.5 °C 1010.9 hPa ESE 5.4 km/h 8 km/h 40.3% 0.0 mm
21:04 30.2 °C 15.7 °C 1011.1 hPa ESE 4.7 km/h 10 km/h 41.6% 0.0 mm
21:09 30 °C 16.1 °C 1011.1 hPa ESE 5 km/h 12.2 km/h 43.1% 0.0 mm
21:14 29.7 °C 16.4 °C 1011.1 hPa ESE 5.8 km/h 13 km/h 44.9% 0.0 mm
21:19 29.4 °C 16.8 °C 1011.2 hPa ESE 6.5 km/h 13.7 km/h 46.7% 0.0 mm
21:24 29.2 °C 17 °C 1011.2 hPa ESE 8.4 km/h 14.5 km/h 47.9% 0.0 mm
21:29 29 °C 17 °C 1011.2 hPa SE 7.8 km/h 11.3 km/h 48.5% 0.0 mm
21:34 28.9 °C 17.1 °C 1011.4 hPa SE 6.5 km/h 9.7 km/h 49% 0.0 mm
21:39 28.8 °C 17 °C 1011.4 hPa SE 5.9 km/h 10 km/h 49% 0.0 mm
21:44 28.8 °C 17.3 °C 1011.4 hPa ESE 4.7 km/h 9.7 km/h 49.8% 0.0 mm
21:49 28.7 °C 17.2 °C 1011.7 hPa ESE 4.7 km/h 9.3 km/h 50% 0.0 mm
21:54 28.7 °C 17.2 °C 1011.7 hPa Este 4.7 km/h 9.7 km/h 50% 0.0 mm
21:59 28.6 °C 17.4 °C 1011.7 hPa ESE 4.4 km/h 9.7 km/h 50.9% 0.0 mm
22:04 28.4 °C 17.3 °C 1011.8 hPa Este 3.9 km/h 8.4 km/h 51% 0.0 mm
22:09 28.3 °C 17.2 °C 1011.8 hPa ENE 3.9 km/h 8 km/h 51% 0.0 mm
22:14 28.2 °C 17.2 °C 1011.8 hPa ENE 3.9 km/h 8 km/h 51.1% 0.0 mm
22:19 28.2 °C 17.3 °C 1011.9 hPa Este 3.9 km/h 8 km/h 51.7% 0.0 mm
22:24 28.2 °C 17.4 °C 1011.9 hPa Este 3.9 km/h 5.8 km/h 52% 0.0 mm
22:29 28.1 °C 17.3 °C 1011.9 hPa Este 3.7 km/h 7.4 km/h 52% 0.0 mm
22:34 28 °C 17.3 °C 1011.9 hPa Este 3.2 km/h 8.4 km/h 52% 0.0 mm
22:39 27.9 °C 17.2 °C 1011.8 hPa Este 3.2 km/h 8 km/h 52% 0.0 mm
22:44 27.9 °C 17.1 °C 1011.8 hPa Este 3.2 km/h 8 km/h 52% 0.0 mm
22:49 27.8 °C 17.1 °C 1011.8 hPa ENE 3.2 km/h 8 km/h 52.3% 0.0 mm
22:54 27.8 °C 17.4 °C 1011.8 hPa NNE 3.2 km/h 8.4 km/h 53.3% 0.0 mm
22:59 27.6 °C 17.5 °C 1011.8 hPa NNE 3.7 km/h 8 km/h 54% 0.0 mm
23:04 27.4 °C 17.3 °C 1011.8 hPa NE 4.7 km/h 8 km/h 54% 0.0 mm
23:09 27.3 °C 17.4 °C 1011.8 hPa North 4.4 km/h 8 km/h 55% 0.0 mm
23:14 27.2 °C 17.4 °C 1011.8 hPa NNO 3.9 km/h 5 km/h 55% 0.0 mm
23:19 27 °C 17.3 °C 1011.8 hPa NNO 3.9 km/h 9.3 km/h 55.4% 0.0 mm
23:24 26.8 °C 17.3 °C 1011.8 hPa NNO 3.9 km/h 9.7 km/h 56.1% 0.0 mm
23:29 26.7 °C 17.4 °C 1011.8 hPa NO 3.9 km/h 8 km/h 57% 0.0 mm
23:34 26.4 °C 17.4 °C 1011.9 hPa NNO 3.9 km/h 9.3 km/h 57.8% 0.0 mm
23:39 26.3 °C 17.5 °C 1011.9 hPa North 4.1 km/h 9.7 km/h 58.6% 0.0 mm
23:44 26.2 °C 17.6 °C 1011.9 hPa North 4.7 km/h 8 km/h 59% 0.0 mm
23:49 26.2 °C 17.7 °C 1012.0 hPa North 4.4 km/h 8 km/h 59.6% 0.0 mm
23:54 26.1 °C 17.7 °C 1012.0 hPa North 3.9 km/h 9.5 km/h 60% 0.0 mm
23:59 26.1 °C 17.7 °C 1012.0 hPa North 4.2 km/h 9.7 km/h 60% 0.0 mm
Murcia-Puente Tocinos, España
Compliments of Weather Underground - 3 mb

La estación de MeteoMurcia.com, publica sus datos en los siguientes proyectos:

Weather Underground PWS IMURCIAP2 Meteoclimatic www.awekas.at

W3Counter
Web Analytics